BAW32 VHHH-EGLL
Flight info
| Callsign | BAW32 |
|---|---|
| Flight time | N/A |
| Altitude | 30100 |
| Route | BEKOL A461 SHL W22 TEPID W24 OSNOV G586 QP B330 ELKAL W179 IGNAK/K0941S0950 W179 WFX/K0945S0920 W179 OMBON W195 VIDEK/K0935S0950 W195 LAXAL/K0930S0980 W195 IDOPA W197 ANDIM B215 IBANO G470 AKLAS W192 FKG A368 SARIN/K0913F320 N161 MADEV/K0904F340 N161 GASBI/N0487F340 N161 LEYLA T916 MATAL DCT REBLO UR317 EKTES/N0482F360 UR317 TBN UM11 CRM UL746 ODERO DCT OPT DCT TEGRI DCT GAZDA DCT ARSIN DCT PEROL DCT RENKA DCT INBED DCT BOMBI DCT DENUT L608 LOGAN |
| Aircraft | B77W/H-SDE1E2E3FGHIJ2J3J4J5M1RWXY/LB1D1 |
Departure
| Time | 2026-04-30 05:42 |
|---|---|
| Airport | Hong Kong International Airport (VHHH) |
Arrival
| Time | N/A |
|---|---|
| Airport | London Heathrow Airport (EGLL) |
| Time | Latitude | Longitude | Altitude | Speed | Heading |
|---|---|---|---|---|---|
| 2026-04-30 03:26 | 22.31320 | 113.93434 | 40 ft | 0 kts | 71° |
| 2026-04-30 05:00 | 22.31319 | 113.93431 | 40 ft | 3 kts | 71° |
| 2026-04-30 05:00 | 22.31310 | 113.93405 | 38 ft | 4 kts | 69° |
| 2026-04-30 05:00 | 22.31300 | 113.93377 | 36 ft | 4 kts | 68° |
| 2026-04-30 05:00 | 22.31290 | 113.93350 | 37 ft | 4 kts | 75° |
| 2026-04-30 05:01 | 22.31287 | 113.93327 | 37 ft | 3 kts | 90° |
| 2026-04-30 05:01 | 22.31291 | 113.93300 | 35 ft | 4 kts | 118° |
| 2026-04-30 05:01 | 22.31300 | 113.93282 | 37 ft | 0 kts | 115° |
| 2026-04-30 05:14 | 22.31299 | 113.93286 | 40 ft | 2 kts | 115° |
| 2026-04-30 05:15 | 22.31283 | 113.93311 | 40 ft | 5 kts | 130° |
| 2026-04-30 05:15 | 22.31257 | 113.93335 | 39 ft | 5 kts | 146° |
| 2026-04-30 05:15 | 22.31227 | 113.93351 | 40 ft | 5 kts | 159° |
| 2026-04-30 05:15 | 22.31201 | 113.93362 | 40 ft | 3 kts | 156° |
| 2026-04-30 05:16 | 22.31179 | 113.93372 | 40 ft | 3 kts | 156° |
| 2026-04-30 05:16 | 22.31156 | 113.93381 | 40 ft | 4 kts | 166° |
| 2026-04-30 05:16 | 22.31128 | 113.93371 | 40 ft | 5 kts | 221° |
| 2026-04-30 05:16 | 22.31126 | 113.93367 | 40 ft | 0 kts | 232° |
| 2026-04-30 05:17 | 22.31123 | 113.93364 | 40 ft | 2 kts | 224° |
| 2026-04-30 05:17 | 22.31106 | 113.93368 | 40 ft | 3 kts | 144° |
| 2026-04-30 05:17 | 22.31091 | 113.93381 | 40 ft | 3 kts | 146° |
| 2026-04-30 05:18 | 22.31071 | 113.93390 | 40 ft | 3 kts | 162° |
| 2026-04-30 05:18 | 22.31030 | 113.93386 | 40 ft | 7 kts | 205° |
| 2026-04-30 05:18 | 22.30995 | 113.93354 | 40 ft | 7 kts | 229° |
| 2026-04-30 05:18 | 22.30982 | 113.93333 | 40 ft | 0 kts | 238° |
| 2026-04-30 05:19 | 22.30975 | 113.93321 | 40 ft | 7 kts | 239° |
| 2026-04-30 05:19 | 22.30954 | 113.93275 | 40 ft | 7 kts | 248° |
| 2026-04-30 05:20 | 22.30949 | 113.93260 | 40 ft | 0 kts | 251° |
| 2026-04-30 05:20 | 22.30921 | 113.93208 | 40 ft | 10 kts | 238° |
| 2026-04-30 05:21 | 22.30889 | 113.93142 | 40 ft | 10 kts | 245° |
| 2026-04-30 05:21 | 22.30864 | 113.93072 | 40 ft | 10 kts | 250° |
| 2026-04-30 05:21 | 22.30841 | 113.93003 | 40 ft | 10 kts | 252° |
| 2026-04-30 05:21 | 22.30824 | 113.92950 | 40 ft | 0 kts | 252° |
| 2026-04-30 05:22 | 22.30815 | 113.92921 | 40 ft | 8 kts | 251° |
| 2026-04-30 05:22 | 22.30801 | 113.92878 | 40 ft | 0 kts | 251° |
| 2026-04-30 05:23 | 22.30800 | 113.92875 | 40 ft | 4 kts | 251° |
| 2026-04-30 05:23 | 22.30781 | 113.92815 | 40 ft | 9 kts | 253° |
| 2026-04-30 05:23 | 22.30760 | 113.92750 | 40 ft | 9 kts | 250° |
| 2026-04-30 05:23 | 22.30739 | 113.92687 | 40 ft | 9 kts | 250° |
| 2026-04-30 05:24 | 22.30718 | 113.92623 | 40 ft | 9 kts | 250° |
| 2026-04-30 05:24 | 22.30697 | 113.92558 | 40 ft | 9 kts | 250° |
| 2026-04-30 05:24 | 22.30676 | 113.92494 | 40 ft | 9 kts | 251° |
| 2026-04-30 05:24 | 22.30656 | 113.92429 | 40 ft | 9 kts | 251° |
| 2026-04-30 05:25 | 22.30635 | 113.92365 | 40 ft | 9 kts | 250° |
| 2026-04-30 05:25 | 22.30622 | 113.92327 | 40 ft | 0 kts | 251° |
| 2026-04-30 05:26 | 22.30622 | 113.92326 | 40 ft | 2 kts | 251° |
| 2026-04-30 05:26 | 22.30609 | 113.92284 | 40 ft | 6 kts | 252° |
| 2026-04-30 05:26 | 22.30609 | 113.92237 | 40 ft | 7 kts | 288° |
| 2026-04-30 05:27 | 22.30638 | 113.92199 | 40 ft | 7 kts | 323° |
| 2026-04-30 05:27 | 22.30681 | 113.92177 | 40 ft | 7 kts | 338° |
| 2026-04-30 05:27 | 22.30725 | 113.92159 | 40 ft | 7 kts | 340° |
| 2026-04-30 05:27 | 22.30770 | 113.92143 | 40 ft | 7 kts | 341° |
| 2026-04-30 05:28 | 22.30814 | 113.92125 | 40 ft | 7 kts | 340° |
| 2026-04-30 05:28 | 22.30859 | 113.92108 | 40 ft | 7 kts | 341° |
| 2026-04-30 05:28 | 22.30933 | 113.92080 | 40 ft | 17 kts | 340° |
| 2026-04-30 05:28 | 22.31025 | 113.92045 | 40 ft | 13 kts | 341° |
| 2026-04-30 05:29 | 22.31112 | 113.92013 | 40 ft | 13 kts | 339° |
| 2026-04-30 05:29 | 22.31198 | 113.91978 | 40 ft | 13 kts | 343° |
| 2026-04-30 05:29 | 22.31257 | 113.91957 | 39 ft | 0 kts | 341° |
| 2026-04-30 05:30 | 22.31265 | 113.91954 | 40 ft | 7 kts | 341° |
| 2026-04-30 05:30 | 22.31319 | 113.91934 | 40 ft | 8 kts | 340° |
| 2026-04-30 05:30 | 22.31372 | 113.91913 | 40 ft | 8 kts | 340° |
| 2026-04-30 05:30 | 22.31426 | 113.91892 | 40 ft | 8 kts | 341° |
| 2026-04-30 05:31 | 22.31480 | 113.91873 | 40 ft | 8 kts | 341° |
| 2026-04-30 05:31 | 22.31536 | 113.91864 | 40 ft | 8 kts | 10° |
| 2026-04-30 05:31 | 22.31581 | 113.91902 | 40 ft | 8 kts | 53° |
| 2026-04-30 05:31 | 22.31607 | 113.91959 | 40 ft | 8 kts | 68° |
| 2026-04-30 05:32 | 22.31627 | 113.92019 | 40 ft | 8 kts | 70° |
| 2026-04-30 05:32 | 22.31647 | 113.92078 | 40 ft | 8 kts | 70° |
| 2026-04-30 05:32 | 22.31667 | 113.92138 | 40 ft | 8 kts | 70° |
| 2026-04-30 05:32 | 22.31686 | 113.92199 | 40 ft | 8 kts | 70° |
| 2026-04-30 05:33 | 22.31705 | 113.92259 | 40 ft | 8 kts | 71° |
| 2026-04-30 05:33 | 22.31725 | 113.92319 | 40 ft | 8 kts | 70° |
| 2026-04-30 05:33 | 22.31747 | 113.92388 | 40 ft | 11 kts | 71° |
| 2026-04-30 05:33 | 22.31771 | 113.92463 | 40 ft | 11 kts | 70° |
| 2026-04-30 05:34 | 22.31797 | 113.92541 | 40 ft | 15 kts | 71° |
| 2026-04-30 05:34 | 22.31836 | 113.92658 | 40 ft | 17 kts | 70° |
| 2026-04-30 05:34 | 22.31858 | 113.92729 | 40 ft | 10 kts | 71° |
| 2026-04-30 05:34 | 22.31868 | 113.92761 | 40 ft | 0 kts | 71° |
| 2026-04-30 05:35 | 22.31879 | 113.92796 | 40 ft | 6 kts | 71° |
| 2026-04-30 05:35 | 22.31896 | 113.92837 | 40 ft | 6 kts | 57° |
| 2026-04-30 05:35 | 22.31931 | 113.92862 | 40 ft | 6 kts | 13° |
| 2026-04-30 05:36 | 22.31938 | 113.92862 | 40 ft | 0 kts | 5° |
| 2026-04-30 05:37 | 22.31945 | 113.92862 | 40 ft | 7 kts | 1° |
| 2026-04-30 05:38 | 22.32005 | 113.92851 | 40 ft | 9 kts | 343° |
| 2026-04-30 05:38 | 22.32048 | 113.92807 | 40 ft | 9 kts | 288° |
| 2026-04-30 05:38 | 22.32045 | 113.92745 | 40 ft | 8 kts | 258° |
| 2026-04-30 05:38 | 22.32040 | 113.92725 | 40 ft | 1 kts | 253° |
| 2026-04-30 05:39 | 22.32039 | 113.92722 | 40 ft | 0 kts | 251° |
| 2026-04-30 05:41 | 22.32037 | 113.92716 | 40 ft | 6 kts | 250° |
| 2026-04-30 05:41 | 22.31955 | 113.92461 | 40 ft | 74 kts | 251° |
| 2026-04-30 05:42 | 22.31703 | 113.91671 | 40 ft | 146 kts | 249° |
| 2026-04-30 05:42 | 22.31321 | 113.90414 | 121 ft | 195 kts | 257° |
| 2026-04-30 05:42 | 22.30946 | 113.89041 | 978 ft | 182 kts | 255° |
| 2026-04-30 05:42 | 22.30530 | 113.87691 | 1456 ft | 200 kts | 253° |
| 2026-04-30 05:43 | 22.30022 | 113.86232 | 1625 ft | 216 kts | 252° |
| 2026-04-30 05:43 | 22.29485 | 113.84682 | 1782 ft | 231 kts | 252° |
| 2026-04-30 05:43 | 22.28919 | 113.83006 | 2056 ft | 247 kts | 252° |
| 2026-04-30 05:43 | 22.28326 | 113.81206 | 2358 ft | 264 kts | 252° |
| 2026-04-30 05:44 | 22.27702 | 113.79291 | 2766 ft | 276 kts | 252° |
| 2026-04-30 05:44 | 22.27064 | 113.77322 | 3425 ft | 279 kts | 252° |
| 2026-04-30 05:44 | 22.26425 | 113.75346 | 4152 ft | 278 kts | 252° |
| 2026-04-30 05:44 | 22.25546 | 113.73533 | 4913 ft | 272 kts | 227° |
| 2026-04-30 05:45 | 22.24053 | 113.72344 | 5551 ft | 273 kts | 212° |
| 2026-04-30 05:45 | 22.22358 | 113.71388 | 5994 ft | 280 kts | 199° |
| 2026-04-30 05:45 | 22.20401 | 113.71304 | 6491 ft | 290 kts | 166° |
| 2026-04-30 05:45 | 22.18523 | 113.72129 | 6962 ft | 294 kts | 158° |
| 2026-04-30 05:46 | 22.16630 | 113.73028 | 7463 ft | 299 kts | 159° |
| 2026-04-30 05:46 | 22.14716 | 113.73911 | 8067 ft | 300 kts | 160° |
| 2026-04-30 05:46 | 22.12783 | 113.74803 | 8633 ft | 303 kts | 158° |
| 2026-04-30 05:46 | 22.10969 | 113.76008 | 8999 ft | 312 kts | 144° |
| 2026-04-30 05:47 | 22.09289 | 113.77532 | 8947 ft | 316 kts | 141° |
| 2026-04-30 05:47 | 22.07671 | 113.79073 | 8958 ft | 313 kts | 137° |
| 2026-04-30 05:47 | 22.06471 | 113.81000 | 9011 ft | 313 kts | 109° |
| 2026-04-30 05:47 | 22.05949 | 113.83275 | 9406 ft | 317 kts | 102° |
| 2026-04-30 05:48 | 22.05497 | 113.85632 | 9830 ft | 324 kts | 102° |
| 2026-04-30 05:48 | 22.05033 | 113.88027 | 10286 ft | 330 kts | 103° |
| 2026-04-30 05:48 | 22.04545 | 113.90512 | 10436 ft | 348 kts | 103° |
| 2026-04-30 05:48 | 22.04227 | 113.93140 | 10548 ft | 363 kts | 85° |
| 2026-04-30 05:49 | 22.04878 | 113.95797 | 10655 ft | 375 kts | 63° |
| 2026-04-30 05:49 | 22.06059 | 113.98361 | 10783 ft | 390 kts | 62° |
| 2026-04-30 05:49 | 22.07229 | 114.01004 | 11094 ft | 401 kts | 64° |
| 2026-04-30 05:49 | 22.08408 | 114.03760 | 11538 ft | 408 kts | 64° |
| 2026-04-30 05:50 | 22.09594 | 114.06559 | 12097 ft | 412 kts | 64° |
| 2026-04-30 05:50 | 22.10796 | 114.09365 | 12665 ft | 411 kts | 61° |
| 2026-04-30 05:50 | 22.12436 | 114.11883 | 13017 ft | 414 kts | 39° |
| 2026-04-30 05:50 | 22.14774 | 114.13636 | 13454 ft | 408 kts | 27° |
| 2026-04-30 05:51 | 22.17214 | 114.15263 | 13860 ft | 416 kts | 30° |
| 2026-04-30 05:51 | 22.19625 | 114.17007 | 14375 ft | 418 kts | 31° |
| 2026-04-30 05:51 | 22.22036 | 114.18776 | 14921 ft | 420 kts | 31° |
| 2026-04-30 05:51 | 22.24463 | 114.20451 | 15336 ft | 418 kts | 23° |
| 2026-04-30 05:52 | 22.27222 | 114.21361 | 15547 ft | 415 kts | 0° |
| 2026-04-30 05:52 | 22.30078 | 114.21323 | 15964 ft | 410 kts | 353° |
| 2026-04-30 05:52 | 22.32950 | 114.21234 | 16340 ft | 416 kts | 355° |
| 2026-04-30 05:52 | 22.35859 | 114.21208 | 16850 ft | 419 kts | 355° |
| 2026-04-30 05:53 | 22.38779 | 114.21196 | 17381 ft | 420 kts | 355° |
| 2026-04-30 05:53 | 22.41715 | 114.21179 | 17874 ft | 423 kts | 355° |
| 2026-04-30 05:53 | 22.44610 | 114.20854 | 18166 ft | 418 kts | 339° |
| 2026-04-30 05:53 | 22.47185 | 114.19545 | 18454 ft | 415 kts | 320° |
| 2026-04-30 05:54 | 22.49403 | 114.17586 | 18774 ft | 413 kts | 316° |
| 2026-04-30 05:54 | 22.51631 | 114.15593 | 19097 ft | 418 kts | 317° |
| 2026-04-30 05:54 | 22.53914 | 114.13626 | 19483 ft | 420 kts | 320° |
| 2026-04-30 05:54 | 22.56414 | 114.11953 | 19835 ft | 427 kts | 330° |
| 2026-04-30 05:55 | 22.59131 | 114.10598 | 20203 ft | 431 kts | 332° |
| 2026-04-30 05:55 | 22.61641 | 114.09394 | 20576 ft | 434 kts | 332° |
| 2026-04-30 05:55 | 22.64397 | 114.08059 | 20968 ft | 436 kts | 332° |